createdAt,value
2022-12-25T00:02:01.941Z,10.70
2022-12-25T00:04:28.840Z,15.30
2022-12-25T00:06:56.022Z,12.68
2022-12-25T00:09:22.718Z,11.95
2022-12-25T00:11:49.340Z,9.98
2022-12-25T00:14:16.155Z,12.27
2022-12-25T00:16:42.815Z,12.90
2022-12-25T00:19:09.517Z,11.80
2022-12-25T00:21:36.811Z,9.07
2022-12-25T00:24:03.690Z,13.90
2022-12-25T00:26:30.352Z,12.15
2022-12-25T00:31:25.721Z,7.13
2022-12-25T00:33:52.967Z,12.32
2022-12-25T00:36:22.334Z,10.85
2022-12-25T00:38:49.281Z,13.20
2022-12-25T00:41:38.758Z,13.65
2022-12-25T00:44:06.461Z,12.23
2022-12-25T00:46:33.222Z,12.80
2022-12-25T00:49:00.580Z,10.13
2022-12-25T00:51:27.247Z,7.45
2022-12-25T00:56:20.561Z,10.30
2022-12-25T01:01:14.623Z,9.13
2022-12-25T01:03:42.123Z,10.27
2022-12-25T01:06:10.923Z,12.25
2022-12-25T01:08:59.725Z,16.00
2022-12-25T01:11:26.654Z,10.98
2022-12-25T01:13:53.316Z,14.35
2022-12-25T01:18:46.721Z,8.88
2022-12-25T01:21:18.383Z,12.55
2022-12-25T01:23:45.095Z,14.05
2022-12-25T01:28:39.778Z,11.13
2022-12-25T01:31:10.647Z,11.23
2022-12-25T01:33:38.474Z,11.40
2022-12-25T01:36:15.901Z,11.02
2022-12-25T01:38:43.742Z,10.90
2022-12-25T01:41:11.859Z,10.07
2022-12-25T01:43:56.240Z,11.35
2022-12-25T01:46:22.889Z,10.27
2022-12-25T01:51:29.125Z,9.18
2022-12-25T01:53:59.556Z,8.82
2022-12-25T01:56:29.029Z,11.45
2022-12-25T01:58:57.665Z,11.23
2022-12-25T02:01:24.392Z,9.57
2022-12-25T02:03:57.055Z,12.57
2022-12-25T02:08:51.645Z,7.28
2022-12-25T02:11:37.317Z,9.43
2022-12-25T02:14:03.979Z,8.38
2022-12-25T02:16:35.556Z,14.55
2022-12-25T02:19:25.195Z,13.07
2022-12-25T02:22:06.908Z,6.95
2022-12-25T02:24:50.635Z,10.57
2022-12-25T02:27:27.705Z,11.88
2022-12-25T02:30:03.794Z,12.35
2022-12-25T02:32:52.364Z,12.10
2022-12-25T02:35:28.390Z,13.98
2022-12-25T02:38:16.692Z,7.60
2022-12-25T02:40:51.347Z,7.25
2022-12-25T02:43:46.565Z,11.40
2022-12-25T02:46:35.248Z,11.38
2022-12-25T02:49:41.583Z,15.52
2022-12-25T02:52:41.202Z,11.85
2022-12-25T02:55:35.983Z,11.98
2022-12-25T02:58:27.276Z,16.58
2022-12-25T03:01:18.398Z,14.90
2022-12-25T03:04:05.487Z,10.40
2022-12-25T03:06:46.739Z,10.13
2022-12-25T03:09:42.758Z,14.70
2022-12-25T03:12:15.716Z,15.10
2022-12-25T03:15:01.315Z,11.70
2022-12-25T03:17:28.102Z,9.68
2022-12-25T03:20:13.249Z,9.63
2022-12-25T03:23:02.735Z,13.82
2022-12-25T03:25:48.103Z,11.95
2022-12-25T03:28:15.024Z,10.15
2022-12-25T03:31:06.826Z,8.60
2022-12-25T03:34:10.701Z,15.95
2022-12-25T03:36:40.977Z,9.82
2022-12-25T03:39:42.120Z,7.80
2022-12-25T03:42:37.477Z,9.98
2022-12-25T03:45:41.278Z,22.45
2022-12-25T03:48:28.764Z,10.10
2022-12-25T03:51:22.436Z,7.78
2022-12-25T03:54:13.594Z,8.95
2022-12-25T03:57:00.362Z,10.60
2022-12-25T03:59:45.737Z,7.78
2022-12-25T04:02:31.250Z,8.77
2022-12-25T04:05:16.416Z,17.00
2022-12-25T04:08:02.272Z,13.05
2022-12-25T04:10:47.683Z,10.60
2022-12-25T04:13:34.564Z,11.70
2022-12-25T04:16:20.145Z,8.82
2022-12-25T04:19:05.524Z,6.57
2022-12-25T04:21:50.895Z,12.40
2022-12-25T04:24:36.476Z,9.63
2022-12-25T04:27:21.561Z,8.35
2022-12-25T04:30:06.905Z,10.68
2022-12-25T04:32:52.175Z,10.40
2022-12-25T04:35:37.611Z,8.15
2022-12-25T04:38:04.236Z,11.75
2022-12-25T04:42:57.430Z,13.15
2022-12-25T04:47:50.773Z,13.00
2022-12-25T04:52:43.953Z,8.25
2022-12-25T04:57:38.382Z,9.07
2022-12-25T05:00:07.402Z,11.80
2022-12-25T05:02:34.675Z,19.67
2022-12-25T05:05:01.510Z,11.50
2022-12-25T05:07:28.242Z,9.80
2022-12-25T05:09:54.928Z,10.88
2022-12-25T05:14:48.163Z,11.88
2022-12-25T05:19:41.340Z,8.68
2022-12-25T05:24:34.586Z,9.18
2022-12-25T05:27:01.214Z,8.23
2022-12-25T05:29:28.022Z,7.07
2022-12-25T05:31:54.717Z,10.93
2022-12-25T05:34:21.469Z,9.18
2022-12-25T05:36:48.076Z,9.90
2022-12-25T05:39:14.827Z,9.90
2022-12-25T05:44:07.976Z,11.57
2022-12-25T05:46:34.830Z,8.70
2022-12-25T05:49:01.460Z,10.50
2022-12-25T05:53:54.698Z,7.10
2022-12-25T05:58:48.330Z,10.63
2022-12-25T06:01:19.291Z,10.57
2022-12-25T06:03:46.624Z,8.27
2022-12-25T06:06:13.962Z,10.15
2022-12-25T06:08:41.342Z,7.88
2022-12-25T06:11:14.575Z,16.52
2022-12-25T06:13:41.757Z,10.35
2022-12-25T06:16:11.512Z,10.50
2022-12-25T06:18:41.693Z,10.10
2022-12-25T06:21:10.143Z,9.48
2022-12-25T06:23:38.391Z,11.43
2022-12-25T06:26:10.415Z,12.85
2022-12-25T06:28:37.377Z,8.25
2022-12-25T06:31:09.441Z,12.18
2022-12-25T06:33:36.895Z,9.07
2022-12-25T06:36:11.935Z,16.20
2022-12-25T06:38:38.923Z,10.30
2022-12-25T06:41:11.566Z,11.35
2022-12-25T06:46:10.694Z,11.30
2022-12-25T06:48:39.148Z,6.07
2022-12-25T06:51:06.803Z,9.13
2022-12-25T06:53:40.384Z,10.90
2022-12-25T06:56:10.600Z,7.22
2022-12-25T06:58:37.257Z,10.25
2022-12-25T07:01:15.329Z,9.07
2022-12-25T07:03:44.252Z,13.55
2022-12-25T07:06:11.455Z,10.85
2022-12-25T07:08:38.289Z,7.78
2022-12-25T07:11:05.502Z,10.63
2022-12-25T07:13:32.519Z,10.88
2022-12-25T07:16:01.369Z,10.80
2022-12-25T07:18:29.767Z,11.27
2022-12-25T07:20:56.462Z,12.25
2022-12-25T07:23:23.611Z,8.10
2022-12-25T07:25:54.742Z,9.60
2022-12-25T07:28:21.625Z,8.65
2022-12-25T07:30:48.384Z,9.88
2022-12-25T07:33:15.629Z,9.73
2022-12-25T07:35:42.494Z,6.88
2022-12-25T07:38:09.849Z,10.70
2022-12-25T07:40:36.580Z,8.80
2022-12-25T07:43:03.345Z,9.63
2022-12-25T07:45:30.183Z,10.48
2022-12-25T07:48:05.855Z,12.10
2022-12-25T07:50:34.660Z,7.28
2022-12-25T07:53:01.491Z,9.93
2022-12-25T07:55:28.307Z,10.80
2022-12-25T07:57:55.284Z,9.40
2022-12-25T08:00:22.265Z,10.75
2022-12-25T08:02:50.203Z,6.25
2022-12-25T08:05:17.206Z,9.15
2022-12-25T08:07:43.861Z,7.75
2022-12-25T08:10:10.954Z,8.85
2022-12-25T08:12:37.739Z,7.15
2022-12-25T08:15:04.817Z,11.02
2022-12-25T08:17:31.439Z,10.00
2022-12-25T08:22:25.117Z,10.13
2022-12-25T08:24:51.751Z,9.38
2022-12-25T08:29:45.105Z,7.47
2022-12-25T08:32:11.789Z,8.02
2022-12-25T08:34:38.962Z,5.40
2022-12-25T08:37:05.974Z,7.30
2022-12-25T08:39:32.654Z,9.25
2022-12-25T08:41:59.303Z,6.70
2022-12-25T08:46:53.286Z,5.55
2022-12-25T08:49:19.969Z,9.85
2022-12-25T08:51:46.939Z,8.00
2022-12-25T08:54:13.673Z,9.43
2022-12-25T08:59:06.940Z,11.55
2022-12-25T09:01:33.828Z,7.82
2022-12-25T09:04:00.566Z,13.20
2022-12-25T09:08:53.844Z,13.38
2022-12-25T09:11:21.176Z,11.50
2022-12-25T09:13:48.633Z,8.90
2022-12-25T09:16:18.432Z,12.15
2022-12-25T09:18:45.117Z,10.32
2022-12-25T09:21:14.985Z,11.73
2022-12-25T09:23:42.651Z,7.00
2022-12-25T09:26:13.512Z,5.68
2022-12-25T09:28:43.719Z,14.40
2022-12-25T09:31:13.504Z,11.52
2022-12-25T09:33:40.480Z,11.10
2022-12-25T09:36:08.619Z,12.55
2022-12-25T09:38:36.059Z,9.85
2022-12-25T09:41:50.521Z,15.30
2022-12-25T09:44:23.127Z,9.75
2022-12-25T09:46:56.050Z,11.27
2022-12-25T09:49:35.675Z,8.55
2022-12-25T09:52:19.845Z,12.60
2022-12-25T09:55:20.584Z,10.10
2022-12-25T09:57:54.514Z,11.43
2022-12-25T10:00:23.618Z,9.18
2022-12-25T10:03:12.421Z,6.65
2022-12-25T10:05:57.579Z,12.45
2022-12-25T10:08:52.469Z,7.18
2022-12-25T10:11:40.430Z,7.30
2022-12-25T10:14:07.675Z,7.35
2022-12-25T10:17:12.083Z,6.63
2022-12-25T10:19:58.115Z,8.13
2022-12-25T10:22:47.702Z,7.95
2022-12-25T10:25:21.135Z,10.75
2022-12-25T10:28:03.899Z,7.75
2022-12-25T10:30:31.708Z,8.63
2022-12-25T10:32:58.744Z,11.38
2022-12-25T10:35:29.572Z,7.00
2022-12-25T10:38:11.798Z,8.75
2022-12-25T10:40:53.302Z,7.35
2022-12-25T10:43:28.130Z,11.18
2022-12-25T10:45:54.957Z,9.68
2022-12-25T10:48:33.096Z,7.88
2022-12-25T10:51:00.126Z,10.73
2022-12-25T10:53:29.368Z,11.48
2022-12-25T10:55:58.993Z,14.13
2022-12-25T10:58:26.274Z,9.93
2022-12-25T11:00:57.336Z,7.25
2022-12-25T11:03:29.011Z,10.68
2022-12-25T11:05:56.034Z,10.48
2022-12-25T11:08:25.559Z,7.20
2022-12-25T11:11:07.801Z,7.70
2022-12-25T11:13:47.424Z,8.73
2022-12-25T11:16:25.820Z,9.18
2022-12-25T11:21:33.671Z,7.60
2022-12-25T11:24:00.360Z,7.28
2022-12-25T11:26:29.676Z,6.30
2022-12-25T11:28:56.940Z,9.25
2022-12-25T11:31:39.323Z,9.30
2022-12-25T11:34:14.748Z,9.45
2022-12-25T11:36:50.024Z,7.18
2022-12-25T11:39:23.933Z,11.70
2022-12-25T11:42:13.495Z,10.18
2022-12-25T11:44:51.448Z,8.70
2022-12-25T11:47:35.047Z,9.27
2022-12-25T11:50:07.418Z,7.75
2022-12-25T11:52:38.855Z,10.27
2022-12-25T11:55:16.910Z,9.93
2022-12-25T11:57:47.955Z,7.43
2022-12-25T12:00:16.310Z,8.02
2022-12-25T12:02:53.819Z,9.35
2022-12-25T12:05:29.582Z,10.98
2022-12-25T12:08:02.467Z,8.32
2022-12-25T12:10:34.785Z,9.23
2022-12-25T12:15:50.458Z,6.95
2022-12-25T12:18:29.771Z,9.05
2022-12-25T12:21:05.197Z,9.52
2022-12-25T12:23:36.040Z,7.55
2022-12-25T12:26:04.480Z,9.48
2022-12-25T12:28:44.722Z,8.00
2022-12-25T12:31:12.161Z,8.45
2022-12-25T12:33:44.118Z,7.18
2022-12-25T12:36:14.630Z,6.47
2022-12-25T12:38:43.664Z,9.20
2022-12-25T12:41:12.556Z,8.57
2022-12-25T12:43:42.524Z,7.97
2022-12-25T12:46:31.061Z,10.32
2022-12-25T12:49:20.129Z,6.38
2022-12-25T12:51:46.922Z,7.65
2022-12-25T12:54:24.933Z,6.65
2022-12-25T12:57:04.403Z,7.60
2022-12-25T12:59:44.521Z,7.50
2022-12-25T13:02:36.331Z,9.23
2022-12-25T13:05:14.330Z,7.30
2022-12-25T13:07:59.331Z,8.32
2022-12-25T13:10:34.998Z,5.55
2022-12-25T13:13:06.908Z,10.52
2022-12-25T13:15:35.282Z,5.32
2022-12-25T13:18:06.718Z,7.93
2022-12-25T13:20:46.910Z,6.43
2022-12-25T13:23:23.673Z,8.68
2022-12-25T13:25:55.490Z,4.53
2022-12-25T13:28:30.211Z,3.03
2022-12-25T13:31:05.672Z,5.82
2022-12-25T13:33:33.495Z,3.55
2022-12-25T13:36:00.317Z,4.03
2022-12-25T13:38:28.976Z,3.97
2022-12-25T13:41:15.657Z,4.53
2022-12-25T13:43:44.516Z,4.15
2022-12-25T13:46:14.391Z,3.65
2022-12-25T13:48:42.060Z,2.95
2022-12-25T13:51:16.899Z,4.25
2022-12-25T13:53:44.151Z,4.80
2022-12-25T13:56:16.211Z,6.15
2022-12-25T13:58:44.747Z,3.72
2022-12-25T14:01:16.255Z,3.88
2022-12-25T14:03:46.233Z,6.93
2022-12-25T14:06:20.979Z,5.70
2022-12-25T14:08:48.587Z,8.07
2022-12-25T14:11:18.053Z,6.32
2022-12-25T14:13:47.852Z,4.53
2022-12-25T14:16:18.709Z,6.00
2022-12-25T14:19:00.673Z,4.38
2022-12-25T14:21:32.791Z,6.32
2022-12-25T14:24:00.113Z,5.20
2022-12-25T14:26:32.071Z,6.90
2022-12-25T14:29:04.949Z,5.40
2022-12-25T14:31:32.859Z,8.70
2022-12-25T14:34:03.044Z,6.05
2022-12-25T14:36:31.606Z,5.35
2022-12-25T14:39:00.655Z,7.35
2022-12-25T14:41:39.492Z,6.78
2022-12-25T14:47:23.782Z,5.20
2022-12-25T14:49:51.056Z,4.65
2022-12-25T14:52:31.662Z,8.73
2022-12-25T14:55:04.894Z,6.43
2022-12-25T14:57:38.516Z,7.70
2022-12-25T15:00:18.635Z,5.65
2022-12-25T15:02:47.327Z,9.02
2022-12-25T15:05:28.423Z,5.32
2022-12-25T15:08:13.222Z,4.65
2022-12-25T15:13:28.592Z,9.55
2022-12-25T15:16:12.243Z,4.93
2022-12-25T15:18:42.029Z,6.40
2022-12-25T15:21:30.356Z,5.53
2022-12-25T15:23:59.113Z,7.18
2022-12-25T15:26:27.297Z,8.13
2022-12-25T15:28:53.996Z,6.70
2022-12-25T15:31:31.901Z,7.63
2022-12-25T15:34:01.781Z,7.95
2022-12-25T15:36:29.037Z,8.48
2022-12-25T15:38:56.449Z,7.57
2022-12-25T15:42:03.851Z,6.43
2022-12-25T15:44:30.603Z,8.77
2022-12-25T15:46:58.408Z,6.55
2022-12-25T15:49:25.113Z,6.18
2022-12-25T15:51:51.754Z,7.43
2022-12-25T15:54:18.699Z,6.57
2022-12-25T15:56:58.401Z,6.40
2022-12-25T15:59:25.053Z,9.85
2022-12-25T16:01:54.597Z,16.30
2022-12-25T16:04:22.203Z,24.65
2022-12-25T16:06:49.272Z,26.20
2022-12-25T16:09:16.862Z,30.50
2022-12-25T16:11:43.770Z,26.52
2022-12-25T16:14:10.630Z,28.20
2022-12-25T16:16:37.833Z,22.35
2022-12-25T16:19:05.440Z,18.10
2022-12-25T16:21:39.294Z,21.45
2022-12-25T16:24:06.331Z,11.32
2022-12-25T16:26:33.526Z,7.72
2022-12-25T16:29:06.807Z,8.52
2022-12-25T16:31:34.209Z,6.20
2022-12-25T16:34:01.545Z,6.57
2022-12-25T16:36:28.643Z,6.85
2022-12-25T16:38:55.388Z,10.68
2022-12-25T16:41:22.723Z,6.15
2022-12-25T16:43:49.666Z,8.18
2022-12-25T16:46:19.238Z,8.68
2022-12-25T16:48:46.142Z,10.73
2022-12-25T16:51:19.725Z,7.53
2022-12-25T16:53:47.258Z,7.05
2022-12-25T16:56:17.150Z,10.10
2022-12-25T16:58:48.501Z,12.68
2022-12-25T17:01:17.438Z,8.48
2022-12-25T17:03:44.759Z,9.35
2022-12-25T17:06:20.573Z,11.60
2022-12-25T17:08:47.622Z,11.15
2022-12-25T17:11:15.455Z,12.48
2022-12-25T17:13:47.460Z,10.55
2022-12-25T17:16:15.260Z,11.85
2022-12-25T17:18:41.992Z,13.70
2022-12-25T17:21:09.416Z,10.35
2022-12-25T17:23:39.223Z,10.50
2022-12-25T17:26:06.294Z,8.77
2022-12-25T17:28:34.659Z,11.88
2022-12-25T17:31:06.813Z,9.07
2022-12-25T17:33:36.403Z,9.43
2022-12-25T17:36:04.709Z,7.60
2022-12-25T17:38:32.671Z,7.50
2022-12-25T17:41:01.220Z,6.72
2022-12-25T17:43:28.825Z,7.18
2022-12-25T17:45:55.525Z,7.45
2022-12-25T17:48:22.149Z,9.32
2022-12-25T17:50:48.797Z,9.13
2022-12-25T17:53:15.521Z,5.18
2022-12-25T17:55:42.399Z,6.30
2022-12-25T17:58:09.256Z,8.75
2022-12-25T18:00:36.664Z,8.05
2022-12-25T18:03:10.804Z,11.65
2022-12-25T18:05:38.516Z,13.02
2022-12-25T18:08:05.417Z,9.52
2022-12-25T18:10:42.031Z,7.38
2022-12-25T18:13:10.778Z,8.57
2022-12-25T18:15:39.800Z,10.57
2022-12-25T18:18:08.370Z,14.13
2022-12-25T18:20:39.807Z,6.95
2022-12-25T18:23:08.048Z,10.95
2022-12-25T18:25:34.823Z,7.60
2022-12-25T18:28:02.793Z,9.90
2022-12-25T18:30:29.723Z,13.98
2022-12-25T18:35:23.427Z,6.93
2022-12-25T18:37:50.156Z,10.48
2022-12-25T18:40:17.133Z,6.68
2022-12-25T18:42:46.465Z,8.18
2022-12-25T18:45:14.763Z,5.85
2022-12-25T18:47:41.572Z,7.43
2022-12-25T18:50:09.772Z,8.95
2022-12-25T18:52:49.977Z,6.43
2022-12-25T18:55:17.565Z,6.78
2022-12-25T18:57:44.608Z,4.65
2022-12-25T19:00:11.702Z,8.57
2022-12-25T19:02:38.694Z,8.68
2022-12-25T19:05:06.026Z,9.05
2022-12-25T19:07:32.776Z,8.82
2022-12-25T19:09:59.664Z,6.80
2022-12-25T19:12:26.369Z,4.82
2022-12-25T19:14:53.025Z,8.65
2022-12-25T19:19:46.545Z,12.27
2022-12-25T19:22:13.589Z,6.43
2022-12-25T19:24:40.343Z,6.50
2022-12-25T19:27:07.299Z,5.88
2022-12-25T19:29:34.480Z,8.45
2022-12-25T19:32:01.564Z,6.22
2022-12-25T19:34:28.341Z,6.55
2022-12-25T19:39:24.790Z,5.60
2022-12-25T19:41:51.441Z,4.85
2022-12-25T19:44:19.992Z,9.45
2022-12-25T19:46:46.710Z,6.57
2022-12-25T19:49:14.053Z,6.07
2022-12-25T19:51:44.220Z,4.75
2022-12-25T19:54:15.938Z,5.72
2022-12-25T19:56:43.350Z,6.20
2022-12-25T19:59:11.885Z,10.30
2022-12-25T20:01:39.488Z,7.82
2022-12-25T20:04:08.785Z,10.27
2022-12-25T20:06:38.397Z,7.05
2022-12-25T20:09:14.977Z,6.53
2022-12-25T20:11:43.139Z,9.48
2022-12-25T20:14:13.554Z,6.95
2022-12-25T20:16:40.960Z,8.85
2022-12-25T20:19:08.188Z,8.18
2022-12-25T20:21:35.122Z,5.85
2022-12-25T20:24:01.989Z,7.63
2022-12-25T20:26:30.884Z,8.90
2022-12-25T20:28:58.592Z,9.30
2022-12-25T20:31:30.755Z,7.55
2022-12-25T20:33:59.671Z,6.10
2022-12-25T20:36:31.200Z,8.13
2022-12-25T20:39:03.655Z,4.93
2022-12-25T20:41:30.591Z,7.15
2022-12-25T20:43:58.064Z,7.53
2022-12-25T20:46:26.032Z,5.82
2022-12-25T20:48:53.733Z,6.55
2022-12-25T20:51:23.391Z,5.13
2022-12-25T20:53:51.254Z,7.35
2022-12-25T20:56:21.113Z,6.68
2022-12-25T20:58:52.133Z,8.48
2022-12-25T21:01:18.931Z,8.30
2022-12-25T21:03:45.942Z,6.78
2022-12-25T21:06:12.955Z,7.70
2022-12-25T21:08:41.491Z,7.55
2022-12-25T21:11:08.648Z,8.00
2022-12-25T21:13:41.773Z,7.18
2022-12-25T21:16:12.154Z,8.60
2022-12-25T21:18:39.301Z,6.95
2022-12-25T21:21:07.762Z,7.03
2022-12-25T21:23:36.613Z,8.60
2022-12-25T21:26:31.788Z,9.23
2022-12-25T21:29:00.848Z,6.07
2022-12-25T21:31:28.626Z,7.18
2022-12-25T21:33:57.700Z,7.43
2022-12-25T21:36:29.971Z,9.05
2022-12-25T21:39:02.529Z,9.30
2022-12-25T21:41:30.838Z,8.63
2022-12-25T21:43:57.816Z,8.60
2022-12-25T21:46:26.131Z,7.82
2022-12-25T21:48:53.538Z,7.25
2022-12-25T21:51:44.502Z,8.73
2022-12-25T21:54:12.491Z,6.40
2022-12-25T21:56:44.471Z,8.38
2022-12-25T21:59:15.490Z,8.30
2022-12-25T22:01:42.784Z,10.15
2022-12-25T22:04:11.164Z,10.52
2022-12-25T22:06:56.409Z,6.72
2022-12-25T22:09:23.229Z,14.43
2022-12-25T22:12:08.583Z,5.95
2022-12-25T22:14:54.360Z,7.47
2022-12-25T22:17:42.410Z,12.80
2022-12-25T22:20:15.762Z,10.20
2022-12-25T22:22:42.749Z,11.27
2022-12-25T22:25:10.863Z,10.43
2022-12-25T22:27:39.230Z,10.52
2022-12-25T22:30:07.974Z,9.63
2022-12-25T22:32:34.864Z,7.18
2022-12-25T22:35:01.829Z,10.23
2022-12-25T22:37:28.543Z,10.40
2022-12-25T22:39:55.247Z,9.15
2022-12-25T22:42:22.380Z,11.63
2022-12-25T22:44:49.220Z,9.88
2022-12-25T22:47:15.960Z,9.35
2022-12-25T22:49:43.044Z,7.50
2022-12-25T22:52:10.102Z,10.77
2022-12-25T22:54:37.243Z,6.40
2022-12-25T22:57:04.626Z,8.40
2022-12-25T22:59:32.927Z,9.65
2022-12-25T23:02:00.687Z,9.43
2022-12-25T23:04:28.532Z,9.45
2022-12-25T23:06:55.486Z,9.30
2022-12-25T23:09:29.468Z,8.75
2022-12-25T23:11:58.122Z,11.98
2022-12-25T23:14:41.753Z,11.82
2022-12-25T23:17:31.654Z,9.15
2022-12-25T23:20:18.725Z,10.13
2022-12-25T23:23:05.166Z,8.05
2022-12-25T23:25:52.464Z,12.77
2022-12-25T23:28:39.251Z,10.23
2022-12-25T23:31:06.161Z,10.23
2022-12-25T23:33:32.793Z,8.35
2022-12-25T23:38:26.319Z,6.25
2022-12-25T23:40:53.018Z,9.65
2022-12-25T23:43:19.661Z,6.50
2022-12-25T23:45:46.289Z,9.32
2022-12-25T23:50:39.780Z,11.80
2022-12-25T23:53:06.522Z,9.93
2022-12-25T23:55:33.733Z,10.75
2022-12-25T23:58:01.119Z,8.35
